Time;durP1;ratioP1;P1;durP2;ratioP2;P2;SDS_P1;SDS_P2;PMS_P1;PMS_P2;Temp;Humidity;BMP_temperature;BMP_pressure;BME280_temperature;BME280_humidity;BME280_pressure;Samples;Min_cycle;Max_cycle;Signal;HPM_P1;HPM_P2
2022/06/10 00:00:29;;;;;;;70.93;28.25;;;;;;;;;;6208711;28;20175;-59
2022/06/10 00:03:37;;;;;;;68.25;26.95;;;;;;;;;;6211479;28;20046;-59
2022/06/10 00:06:37;;;;;;;69.70;26.88;;;;;;;;;;6210504;28;20050;-59
2022/06/10 00:09:38;;;;;;;71.87;26.67;;;;;;;;;;6208441;28;20112;-58
2022/06/10 00:12:39;;;;;;;66.63;27.13;;;;;;;;;;6208422;28;20081;-60
2022/06/10 00:15:40;;;;;;;65.93;26.02;;;;;;;;;;6200057;28;20551;-58
2022/06/10 00:18:41;;;;;;;67.47;28.47;;;;;;;;;;6202624;28;20042;-60
2022/06/10 00:21:42;;;;;;;61.42;25.30;;;;;;;;;;6197762;28;20038;-59
2022/06/10 00:24:43;;;;;;;62.05;25.83;;;;;;;;;;6200296;28;20145;-59
2022/06/10 00:27:44;;;;;;;57.53;24.38;;;;;;;;;;6203776;28;20141;-59
2022/06/10 00:30:45;;;;;;;47.65;21.75;;;;;;;;;;6205301;28;20057;-59
2022/06/10 00:33:46;;;;;;;57.78;23.08;;;;;;;;;;6207708;28;20074;-59
2022/06/10 00:36:47;;;;;;;53.73;22.17;;;;;;;;;;6203360;28;20527;-60
2022/06/10 00:39:47;;;;;;;53.05;22.58;;;;;;;;;;6202486;28;20136;-59
2022/06/10 00:42:49;;;;;;;51.72;22.45;;;;;;;;;;6201093;28;20053;-59
2022/06/10 00:45:58;;;;;;;51.60;21.80;;;;;;;;;;6210435;28;20556;-60
2022/06/10 00:49:05;;;;;;;52.28;21.85;;;;;;;;;;6204070;28;20046;-59
2022/06/10 00:52:22;;;;;;;46.25;20.92;;;;;;;;;;6202975;28;20078;-59
2022/06/10 00:55:28;;;;;;;47.63;21.08;;;;;;;;;;6201200;28;20051;-59
2022/06/10 00:58:33;;;;;;;45.40;20.63;;;;;;;;;;6197831;28;20076;-60
2022/06/10 01:01:34;;;;;;;46.90;20.27;;;;;;;;;;6208414;28;20546;-60
2022/06/10 01:04:36;;;;;;;42.05;19.58;;;;;;;;;;6200713;28;20073;-59
2022/06/10 01:07:40;;;;;;;45.23;20.73;;;;;;;;;;6202259;28;20042;-59
2022/06/10 01:11:02;;;;;;;43.42;19.02;;;;;;;;;;6202270;28;20296;-60
2022/06/10 01:14:41;;;;;;;41.28;18.55;;;;;;;;;;6201667;28;20939;-59
2022/06/10 01:18:11;;;;;;;41.03;19.95;;;;;;;;;;6201065;28;20469;-60
2022/06/10 01:21:49;;;;;;;41.70;19.33;;;;;;;;;;6203060;28;20056;-59
2022/06/10 01:25:08;;;;;;;41.13;19.08;;;;;;;;;;6206964;28;20077;-59
2022/06/10 01:28:56;;;;;;;43.83;20.48;;;;;;;;;;6201112;28;20405;-60
2022/06/10 01:32:03;;;;;;;50.85;20.58;;;;;;;;;;6206091;28;20038;-58
2022/06/10 01:35:23;;;;;;;44.70;19.83;;;;;;;;;;6209264;28;20128;-59
2022/06/10 01:38:42;;;;;;;46.42;20.65;;;;;;;;;;6208237;28;20730;-59
2022/06/10 01:41:57;;;;;;;47.88;21.02;;;;;;;;;;6203553;28;20050;-59
2022/06/10 01:45:02;;;;;;;51.90;23.23;;;;;;;;;;6207262;28;20049;-59
2022/06/10 01:48:11;;;;;;;54.72;21.85;;;;;;;;;;6203720;28;20092;-59
2022/06/10 01:51:21;;;;;;;56.03;23.95;;;;;;;;;;6208951;28;20053;-59
2022/06/10 01:54:48;;;;;;;50.65;21.40;;;;;;;;;;6201411;28;20053;-59
2022/06/10 01:58:08;;;;;;;51.88;21.20;;;;;;;;;;6205570;28;20069;-58
2022/06/10 02:01:14;;;;;;;50.60;21.00;;;;;;;;;;6200619;28;21237;-59
2022/06/10 02:04:20;;;;;;;52.15;21.55;;;;;;;;;;6202148;28;20053;-60
2022/06/10 02:07:34;;;;;;;52.75;21.15;;;;;;;;;;6208242;28;20907;-60
2022/06/10 02:10:43;;;;;;;47.92;20.75;;;;;;;;;;6199794;28;20053;-60
2022/06/10 02:13:57;;;;;;;52.55;21.88;;;;;;;;;;6209561;28;20041;-60
2022/06/10 02:17:01;;;;;;;54.78;22.48;;;;;;;;;;6203925;28;20078;-59
2022/06/10 02:20:02;;;;;;;57.92;23.40;;;;;;;;;;6203512;28;20038;-60
2022/06/10 02:23:06;;;;;;;60.53;23.27;;;;;;;;;;6203272;28;20552;-58
2022/06/10 02:26:07;;;;;;;58.80;23.25;;;;;;;;;;6202581;28;20057;-59
2022/06/10 02:29:16;;;;;;;52.60;23.13;;;;;;;;;;6204627;28;20134;-59
2022/06/10 02:32:17;;;;;;;54.80;23.27;;;;;;;;;;6198769;28;20302;-60
2022/06/10 02:35:18;;;;;;;56.67;24.45;;;;;;;;;;6196527;28;20066;-59
2022/06/10 02:38:34;;;;;;;60.88;24.00;;;;;;;;;;6206760;28;20052;-59
2022/06/10 02:42:13;;;;;;;58.25;23.02;;;;;;;;;;6204518;28;20053;-60
2022/06/10 02:45:31;;;;;;;57.00;22.58;;;;;;;;;;6201276;28;20054;-60
2022/06/10 02:48:46;;;;;;;61.65;23.35;;;;;;;;;;6198773;28;20089;-59
2022/06/10 02:51:48;;;;;;;57.25;23.30;;;;;;;;;;6203576;28;20500;-60
2022/06/10 02:54:49;;;;;;;56.53;23.38;;;;;;;;;;6198388;28;20061;-60
2022/06/10 03:01:21;;;;;;;54.65;22.35;;;;;;;;;;6193880;28;20053;-61
2022/06/10 03:04:45;;;;;;;57.70;23.80;;;;;;;;;;6207002;28;20039;-60
2022/06/10 03:07:49;;;;;;;59.13;24.27;;;;;;;;;;6209647;28;20112;-60
2022/06/10 03:11:04;;;;;;;61.97;23.80;;;;;;;;;;6197305;28;20048;-57
2022/06/10 03:14:32;;;;;;;56.78;23.77;;;;;;;;;;6200733;28;20655;-61
2022/06/10 03:17:57;;;;;;;60.65;23.45;;;;;;;;;;6199199;28;20050;-61
2022/06/10 03:21:16;;;;;;;59.13;24.08;;;;;;;;;;6205951;28;20099;-60
2022/06/10 03:24:35;;;;;;;70.43;26.27;;;;;;;;;;6201357;28;20043;-60
2022/06/10 03:27:48;;;;;;;66.18;24.95;;;;;;;;;;6197855;28;20038;-59
2022/06/10 03:31:08;;;;;;;65.85;25.30;;;;;;;;;;6203981;28;20148;-60
2022/06/10 03:34:18;;;;;;;58.50;25.02;;;;;;;;;;6209399;28;20502;-59
2022/06/10 03:37:22;;;;;;;65.38;25.90;;;;;;;;;;6206812;28;20042;-60
2022/06/10 03:40:26;;;;;;;59.58;24.55;;;;;;;;;;6208913;28;20464;-59
2022/06/10 03:43:27;;;;;;;64.28;24.58;;;;;;;;;;6217773;28;20046;-60
2022/06/10 03:46:31;;;;;;;67.50;26.00;;;;;;;;;;6208100;28;20069;-59
2022/06/10 03:49:48;;;;;;;67.88;25.55;;;;;;;;;;6206452;28;20092;-60
2022/06/10 03:52:49;;;;;;;69.57;26.00;;;;;;;;;;6206645;28;20049;-57
2022/06/10 03:55:50;;;;;;;79.18;26.45;;;;;;;;;;6211195;28;20136;-60
2022/06/10 03:58:51;;;;;;;75.72;25.90;;;;;;;;;;6212669;28;20123;-60
2022/06/10 04:01:51;;;;;;;83.13;26.98;;;;;;;;;;6207010;28;20157;-60
2022/06/10 04:04:53;;;;;;;90.15;30.48;;;;;;;;;;6211191;28;20045;-60
2022/06/10 04:07:54;;;;;;;89.10;28.67;;;;;;;;;;6211168;28;20057;-61
2022/06/10 04:10:54;;;;;;;99.03;31.88;;;;;;;;;;6211310;28;20046;-59
2022/06/10 04:13:55;;;;;;;89.65;31.02;;;;;;;;;;6211488;28;20133;-59
2022/06/10 04:16:56;;;;;;;93.80;33.28;;;;;;;;;;6209735;28;20464;-60
2022/06/10 04:19:57;;;;;;;96.97;34.67;;;;;;;;;;6197002;28;20043;-60
2022/06/10 04:22:57;;;;;;;109.53;36.75;;;;;;;;;;6204306;28;20500;-65
2022/06/10 04:25:58;;;;;;;105.67;35.30;;;;;;;;;;6206477;28;20046;-60
2022/06/10 04:28:59;;;;;;;110.65;37.78;;;;;;;;;;6207118;28;20042;-60
2022/06/10 04:32:00;;;;;;;103.10;37.38;;;;;;;;;;6208105;28;20742;-60
2022/06/10 04:35:00;;;;;;;109.55;38.03;;;;;;;;;;6201688;28;20042;-61
2022/06/10 04:38:02;;;;;;;106.95;37.80;;;;;;;;;;6201042;28;20085;-60
2022/06/10 04:41:05;;;;;;;110.55;38.40;;;;;;;;;;6213151;28;20708;-61
2022/06/10 04:44:07;;;;;;;112.30;39.85;;;;;;;;;;6203397;28;20046;-60
2022/06/10 04:47:07;;;;;;;115.57;39.95;;;;;;;;;;6200568;28;20551;-60
2022/06/10 04:50:10;;;;;;;112.13;39.50;;;;;;;;;;6199866;28;20050;-58
2022/06/10 04:53:11;;;;;;;104.63;38.72;;;;;;;;;;6207890;28;20714;-59
2022/06/10 04:56:12;;;;;;;114.45;40.08;;;;;;;;;;6197180;28;20758;-60
2022/06/10 04:59:13;;;;;;;108.10;40.10;;;;;;;;;;6203782;28;20080;-61
2022/06/10 05:02:13;;;;;;;106.63;38.22;;;;;;;;;;6202365;28;20054;-61
2022/06/10 05:05:14;;;;;;;115.78;39.88;;;;;;;;;;6206972;28;20420;-61
2022/06/10 05:08:18;;;;;;;105.90;37.40;;;;;;;;;;6204396;28;20112;-60
2022/06/10 05:11:19;;;;;;;110.18;41.67;;;;;;;;;;6208090;28;20049;-61
2022/06/10 05:14:19;;;;;;;111.72;41.63;;;;;;;;;;6205247;28;20108;-60
2022/06/10 05:17:20;;;;;;;121.57;42.07;;;;;;;;;;6200710;28;20058;-60
2022/06/10 05:20:33;;;;;;;114.25;41.47;;;;;;;;;;6201145;28;20064;-60
2022/06/10 05:23:34;;;;;;;114.53;40.05;;;;;;;;;;6209532;28;20049;-62
2022/06/10 05:26:34;;;;;;;110.22;39.45;;;;;;;;;;6199507;28;20121;-61
2022/06/10 05:29:35;;;;;;;109.25;42.45;;;;;;;;;;6202019;28;20136;-60
2022/06/10 05:32:36;;;;;;;114.00;41.85;;;;;;;;;;6199305;28;20574;-59
2022/06/10 05:35:38;;;;;;;108.97;42.08;;;;;;;;;;6207035;28;20042;-61
2022/06/10 05:38:38;;;;;;;114.93;41.63;;;;;;;;;;6204228;28;20181;-60
2022/06/10 05:44:58;;;;;;;113.43;42.38;;;;;;;;;;6204400;28;20073;-60
2022/06/10 05:48:01;;;;;;;114.40;43.17;;;;;;;;;;6204399;28;20058;-60
2022/06/10 05:51:02;;;;;;;112.95;41.58;;;;;;;;;;6208914;28;20069;-60
2022/06/10 05:54:03;;;;;;;111.30;42.33;;;;;;;;;;6186837;28;20497;-60
2022/06/10 05:57:04;;;;;;;110.65;40.88;;;;;;;;;;6208790;28;20798;-59
2022/06/10 06:00:13;;;;;;;106.97;41.47;;;;;;;;;;6205467;28;20066;-60
2022/06/10 06:03:15;;;;;;;117.72;42.67;;;;;;;;;;6210725;28;20073;-60
2022/06/10 06:06:15;;;;;;;111.07;41.60;;;;;;;;;;6209415;28;20068;-60
2022/06/10 06:09:16;;;;;;;106.60;39.90;;;;;;;;;;6207411;28;20060;-60
2022/06/10 06:12:18;;;;;;;109.35;40.80;;;;;;;;;;6205137;28;20088;-59
2022/06/10 06:15:19;;;;;;;108.07;39.28;;;;;;;;;;6206097;28;20100;-59
2022/06/10 06:18:20;;;;;;;103.32;38.53;;;;;;;;;;6207934;28;20049;-59
2022/06/10 06:21:21;;;;;;;107.28;39.67;;;;;;;;;;6205739;28;20153;-60
2022/06/10 06:24:22;;;;;;;106.20;39.58;;;;;;;;;;6209993;28;20041;-60
2022/06/10 06:27:23;;;;;;;112.70;39.00;;;;;;;;;;6210409;28;20096;-60
2022/06/10 06:30:31;;;;;;;112.55;40.10;;;;;;;;;;6208929;28;20042;-59
2022/06/10 06:33:31;;;;;;;119.63;38.97;;;;;;;;;;6200965;28;20069;-60
2022/06/10 06:36:45;;;;;;;113.85;39.85;;;;;;;;;;6208466;28;20072;-61
2022/06/10 06:39:45;;;;;;;112.35;41.00;;;;;;;;;;6203561;28;20109;-60
2022/06/10 06:42:46;;;;;;;115.90;41.42;;;;;;;;;;6207403;28;20033;-59
2022/06/10 06:45:46;;;;;;;111.18;41.65;;;;;;;;;;6199930;28;20132;-59
2022/06/10 06:48:47;;;;;;;119.03;43.72;;;;;;;;;;6197860;28;20050;-58
2022/06/10 06:51:49;;;;;;;109.35;43.35;;;;;;;;;;6200986;28;20446;-60
2022/06/10 06:54:50;;;;;;;118.95;43.97;;;;;;;;;;6203892;28;20061;-59
2022/06/10 06:57:51;;;;;;;105.88;43.05;;;;;;;;;;6204994;28;20096;-61
2022/06/10 07:00:52;;;;;;;117.57;43.67;;;;;;;;;;6206599;28;20409;-59
2022/06/10 07:03:52;;;;;;;110.47;43.13;;;;;;;;;;6203766;28;20089;-60
2022/06/10 07:06:53;;;;;;;99.05;40.22;;;;;;;;;;6198444;28;20048;-60
2022/06/10 07:09:54;;;;;;;104.93;41.22;;;;;;;;;;6199432;28;20046;-60
2022/06/10 07:12:54;;;;;;;98.93;41.30;;;;;;;;;;6202311;28;20042;-60
2022/06/10 07:15:56;;;;;;;100.97;40.33;;;;;;;;;;6208039;28;20089;-60
2022/06/10 07:18:57;;;;;;;92.90;37.28;;;;;;;;;;6210519;28;20488;-61
2022/06/10 07:21:58;;;;;;;83.20;36.78;;;;;;;;;;6207572;28;20041;-60
2022/06/10 07:24:59;;;;;;;79.97;34.88;;;;;;;;;;6208782;28;20053;-60
2022/06/10 07:28:00;;;;;;;77.63;33.80;;;;;;;;;;6207102;28;20544;-60
2022/06/10 07:31:01;;;;;;;68.50;30.87;;;;;;;;;;6207888;28;20482;-60
2022/06/10 07:34:01;;;;;;;63.45;28.88;;;;;;;;;;6205600;28;20050;-60
2022/06/10 07:37:02;;;;;;;60.15;26.98;;;;;;;;;;6210440;28;20054;-60
2022/06/10 07:40:04;;;;;;;59.95;28.27;;;;;;;;;;6207781;28;20048;-61
2022/06/10 07:43:05;;;;;;;62.28;27.15;;;;;;;;;;6208689;28;20390;-60
2022/06/10 07:46:06;;;;;;;59.42;28.05;;;;;;;;;;6207997;28;20129;-60
2022/06/10 07:49:07;;;;;;;59.75;29.80;;;;;;;;;;6206267;28;20054;-61
2022/06/10 07:52:09;;;;;;;61.65;29.13;;;;;;;;;;6207887;28;20144;-60
2022/06/10 07:55:10;;;;;;;66.30;29.45;;;;;;;;;;6209033;28;20134;-60
2022/06/10 07:58:13;;;;;;;59.13;27.60;;;;;;;;;;6206605;28;20501;-61
2022/06/10 08:01:14;;;;;;;54.97;26.33;;;;;;;;;;6204360;28;20157;-59
2022/06/10 08:04:15;;;;;;;49.38;25.25;;;;;;;;;;6204432;28;20049;-60
2022/06/10 08:07:15;;;;;;;47.75;25.13;;;;;;;;;;6205395;28;20076;-61
2022/06/10 08:10:20;;;;;;;52.03;25.13;;;;;;;;;;6206231;28;20137;-61
2022/06/10 08:13:21;;;;;;;50.85;24.75;;;;;;;;;;6202671;28;20468;-60
2022/06/10 08:16:23;;;;;;;52.20;25.58;;;;;;;;;;6209580;28;20054;-59
2022/06/10 08:19:24;;;;;;;55.35;26.50;;;;;;;;;;6213646;28;20388;-60
2022/06/10 08:22:35;;;;;;;60.70;28.33;;;;;;;;;;6208849;28;20049;-60
2022/06/10 08:25:35;;;;;;;57.65;28.25;;;;;;;;;;6210212;28;20041;-60
2022/06/10 08:28:39;;;;;;;55.65;27.60;;;;;;;;;;6209354;28;20568;-60
2022/06/10 08:31:39;;;;;;;65.53;31.08;;;;;;;;;;6209408;28;20702;-60
2022/06/10 08:34:42;;;;;;;57.80;28.02;;;;;;;;;;6210149;28;20099;-61
2022/06/10 08:37:42;;;;;;;67.07;30.88;;;;;;;;;;6203668;28;20405;-60
2022/06/10 08:40:49;;;;;;;63.72;30.60;;;;;;;;;;6209171;28;20136;-60
2022/06/10 08:44:08;;;;;;;72.60;33.30;;;;;;;;;;6209747;28;20041;-58
2022/06/10 08:47:37;;;;;;;65.97;31.08;;;;;;;;;;6205315;28;20053;-61
2022/06/10 08:51:10;;;;;;;68.57;30.13;;;;;;;;;;6205122;28;20555;-59
2022/06/10 08:54:19;;;;;;;62.50;28.67;;;;;;;;;;6208766;28;20050;-60
2022/06/10 08:57:36;;;;;;;61.85;28.27;;;;;;;;;;6207762;28;20038;-59
2022/06/10 09:00:40;;;;;;;70.40;32.08;;;;;;;;;;6209231;28;20388;-60
2022/06/10 09:03:59;;;;;;;69.00;31.10;;;;;;;;;;6206479;28;20089;-61
2022/06/10 09:07:05;;;;;;;63.05;30.50;;;;;;;;;;6201624;28;20551;-61
2022/06/10 09:10:17;;;;;;;65.63;31.70;;;;;;;;;;6205146;28;20057;-60
2022/06/10 09:13:40;;;;;;;60.10;29.10;;;;;;;;;;6207779;28;20054;-60
2022/06/10 09:17:26;;;;;;;64.25;29.45;;;;;;;;;;6204126;28;20066;-60
2022/06/10 09:20:39;;;;;;;67.63;30.95;;;;;;;;;;6193268;28;20244;-60
2022/06/10 09:23:43;;;;;;;64.65;30.63;;;;;;;;;;6208421;28;20045;-60
2022/06/10 09:26:52;;;;;;;62.90;29.98;;;;;;;;;;6209021;28;20037;-59
2022/06/10 09:29:55;;;;;;;67.00;30.88;;;;;;;;;;6210162;28;20092;-60
2022/06/10 09:32:55;;;;;;;63.55;31.13;;;;;;;;;;6210409;28;20428;-60
2022/06/10 09:36:19;;;;;;;64.18;30.27;;;;;;;;;;6206359;28;20108;-61
2022/06/10 09:43:26;;;;;;;75.03;34.58;;;;;;;;;;6205201;28;20046;-61
2022/06/10 09:47:00;;;;;;;71.68;33.08;;;;;;;;;;6201932;28;20081;-60
2022/06/10 09:50:11;;;;;;;71.72;32.35;;;;;;;;;;6205558;28;20080;-59
2022/06/10 09:53:36;;;;;;;67.07;32.45;;;;;;;;;;6203270;28;20046;-59
2022/06/10 09:56:55;;;;;;;71.00;33.90;;;;;;;;;;6202439;28;20061;-60
2022/06/10 10:00:19;;;;;;;71.78;32.63;;;;;;;;;;6205786;28;20045;-60
2022/06/10 10:04:09;;;;;;;66.18;31.85;;;;;;;;;;6211421;28;20064;-61
2022/06/10 10:07:26;;;;;;;60.03;29.65;;;;;;;;;;6158466;28;20061;-60
2022/06/10 10:10:37;;;;;;;63.20;30.23;;;;;;;;;;6200215;28;20065;-60
2022/06/10 10:14:22;;;;;;;69.32;33.05;;;;;;;;;;6197920;28;20067;-60
2022/06/10 10:17:39;;;;;;;66.97;31.75;;;;;;;;;;6190188;28;20053;-60
2022/06/10 10:20:39;;;;;;;58.92;30.30;;;;;;;;;;6212129;28;20073;-60
2022/06/10 10:23:53;;;;;;;59.45;30.70;;;;;;;;;;6203820;28;20234;-61
2022/06/10 10:26:55;;;;;;;59.05;30.90;;;;;;;;;;6200588;28;20701;-59
2022/06/10 10:30:01;;;;;;;;;;;;;;;;;;6200031;28;20492;-60
2022/06/10 10:33:06;;;;;;;65.93;32.08;;;;;;;;;;6201060;28;19928;-59
2022/06/10 10:36:25;;;;;;;67.03;32.97;;;;;;;;;;6200127;28;20059;-60
2022/06/10 10:39:35;;;;;;;61.35;31.83;;;;;;;;;;6199195;28;20366;-59
2022/06/10 10:42:40;;;;;;;57.53;29.83;;;;;;;;;;6204068;28;20078;-60
2022/06/10 10:45:54;;;;;;;61.88;29.70;;;;;;;;;;6206811;28;20049;-60
2022/06/10 10:48:59;;;;;;;56.17;28.92;;;;;;;;;;6205152;28;20804;-61
2022/06/10 10:52:07;;;;;;;53.35;28.65;;;;;;;;;;6199642;28;20042;-60
2022/06/10 10:55:14;;;;;;;55.53;29.23;;;;;;;;;;6199939;28;20078;-60
2022/06/10 10:58:24;;;;;;;52.83;27.40;;;;;;;;;;6200793;28;20046;-61
2022/06/10 11:01:43;;;;;;;53.17;27.50;;;;;;;;;;6205838;28;20492;-60
2022/06/10 11:04:43;;;;;;;49.58;25.65;;;;;;;;;;6199765;28;20077;-59
2022/06/10 11:07:46;;;;;;;54.85;26.52;;;;;;;;;;6197769;28;20092;-58
2022/06/10 11:11:08;;;;;;;49.80;26.30;;;;;;;;;;6197836;28;20141;-60
2022/06/10 11:14:35;;;;;;;45.65;24.10;;;;;;;;;;6206367;28;20141;-61
2022/06/10 11:17:36;;;;;;;44.40;23.90;;;;;;;;;;6200858;28;20076;-61
2022/06/10 11:20:37;;;;;;;45.30;22.80;;;;;;;;;;6201498;28;20050;-61
2022/06/10 11:23:49;;;;;;;42.90;23.47;;;;;;;;;;6200536;28;20077;-60
2022/06/10 11:27:02;;;;;;;40.97;22.85;;;;;;;;;;6199975;28;20038;-60
2022/06/10 11:30:13;;;;;;;36.28;22.00;;;;;;;;;;6208639;28;20417;-60
2022/06/10 11:33:32;;;;;;;35.10;21.13;;;;;;;;;;6195472;28;20073;-60
2022/06/10 11:36:36;;;;;;;38.53;20.50;;;;;;;;;;6194322;28;20058;-61
2022/06/10 11:39:47;;;;;;;31.42;19.02;;;;;;;;;;6209687;28;20105;-60
2022/06/10 11:42:51;;;;;;;;;;;;;;;;;;6205203;28;20056;-61
2022/06/10 11:46:05;;;;;;;30.83;19.50;;;;;;;;;;6198496;28;20340;-59
2022/06/10 11:49:13;;;;;;;28.40;19.10;;;;;;;;;;6204851;28;20054;-60
2022/06/10 11:52:28;;;;;;;31.60;19.23;;;;;;;;;;6204624;28;20080;-60
2022/06/10 11:55:33;;;;;;;28.75;18.50;;;;;;;;;;6206783;28;20448;-60
2022/06/10 12:01:53;;;;;;;30.67;18.75;;;;;;;;;;6210771;28;20065;-60
2022/06/10 12:05:19;;;;;;;28.53;17.37;;;;;;;;;;6212871;28;20050;-59
2022/06/10 12:08:47;;;;;;;26.30;17.23;;;;;;;;;;6199546;28;20046;-59
2022/06/10 12:12:13;;;;;;;28.42;17.00;;;;;;;;;;6199830;28;20053;-60
2022/06/10 12:15:24;;;;;;;28.98;18.02;;;;;;;;;;6195992;28;20073;-60
2022/06/10 12:18:29;;;;;;;27.30;15.55;;;;;;;;;;6208489;28;20489;-60
2022/06/10 12:21:29;;;;;;;23.73;15.70;;;;;;;;;;6209518;28;20046;-60
2022/06/10 12:24:30;;;;;;;24.47;15.50;;;;;;;;;;6203436;28;20161;-61
2022/06/10 12:27:39;;;;;;;21.67;14.77;;;;;;;;;;6209688;28;20034;-60
2022/06/10 12:30:44;;;;;;;23.38;15.43;;;;;;;;;;6214314;28;20925;-59
2022/06/10 12:33:56;;;;;;;23.08;14.60;;;;;;;;;;6209439;28;20052;-59
2022/06/10 12:37:05;;;;;;;22.30;14.65;;;;;;;;;;6210034;28;20551;-61
2022/06/10 12:40:25;;;;;;;20.10;13.82;;;;;;;;;;6201708;28;20096;-59
2022/06/10 12:43:32;;;;;;;25.60;14.95;;;;;;;;;;6204570;28;20050;-60
2022/06/10 12:46:49;;;;;;;21.08;12.95;;;;;;;;;;6207972;28;20042;-60
2022/06/10 12:49:58;;;;;;;22.05;13.57;;;;;;;;;;6201344;28;20527;-60
2022/06/10 12:53:17;;;;;;;21.23;14.40;;;;;;;;;;6198441;28;20047;-60
2022/06/10 12:56:21;;;;;;;23.13;13.25;;;;;;;;;;6206156;28;20058;-61
2022/06/10 12:59:24;;;;;;;19.17;12.88;;;;;;;;;;6207725;28;20130;-61
2022/06/10 13:02:56;;;;;;;18.15;12.95;;;;;;;;;;6197715;28;20525;-59
2022/06/10 13:05:56;;;;;;;18.77;12.67;;;;;;;;;;6215422;28;20046;-60
2022/06/10 13:08:59;;;;;;;17.17;12.43;;;;;;;;;;6203272;28;20046;-61
2022/06/10 13:12:08;;;;;;;17.30;12.32;;;;;;;;;;6203254;28;20535;-60
2022/06/10 13:15:16;;;;;;;16.05;12.05;;;;;;;;;;6203264;28;20066;-60
2022/06/10 13:18:16;;;;;;;17.75;11.68;;;;;;;;;;6197765;28;20103;-59
2022/06/10 13:21:17;;;;;;;17.70;12.30;;;;;;;;;;6206511;28;20493;-59
2022/06/10 13:24:19;;;;;;;15.80;11.17;;;;;;;;;;6208511;28;20050;-60
2022/06/10 13:27:26;;;;;;;18.50;12.35;;;;;;;;;;6214374;28;20164;-60
2022/06/10 13:30:31;;;;;;;19.05;11.38;;;;;;;;;;6209305;28;20409;-60
2022/06/10 13:33:32;;;;;;;16.90;11.68;;;;;;;;;;6208844;28;20049;-59
2022/06/10 13:36:53;;;;;;;15.30;11.23;;;;;;;;;;6210968;28;20081;-59
2022/06/10 13:39:57;;;;;;;16.55;11.52;;;;;;;;;;6208395;28;20069;-60
2022/06/10 13:43:01;;;;;;;16.30;11.10;;;;;;;;;;6210107;28;20050;-59
2022/06/10 13:46:03;;;;;;;16.55;12.25;;;;;;;;;;6209092;28;20175;-60
2022/06/10 13:49:42;;;;;;;18.27;11.23;;;;;;;;;;6210378;28;20045;-60
2022/06/10 13:53:03;;;;;;;15.32;10.65;;;;;;;;;;6213033;28;20151;-61
2022/06/10 13:56:07;;;;;;;16.42;11.07;;;;;;;;;;6208575;28;20512;-60
2022/06/10 13:59:29;;;;;;;16.13;11.10;;;;;;;;;;6207793;28;20046;-60
2022/06/10 14:02:32;;;;;;;15.18;10.63;;;;;;;;;;6206813;28;20501;-59
2022/06/10 14:05:32;;;;;;;15.82;11.15;;;;;;;;;;6211435;28;20523;-59
2022/06/10 14:08:45;;;;;;;19.10;10.80;;;;;;;;;;6209449;28;20121;-60
2022/06/10 14:12:01;;;;;;;21.50;11.43;;;;;;;;;;6212247;28;20598;-60
2022/06/10 14:15:21;;;;;;;15.00;10.95;;;;;;;;;;6208851;28;20057;-57
2022/06/10 14:18:25;;;;;;;18.63;11.10;;;;;;;;;;6205477;28;20069;-60
2022/06/10 14:21:29;;;;;;;17.20;11.00;;;;;;;;;;6204141;28;20042;-60
2022/06/10 14:24:31;;;;;;;15.30;10.73;;;;;;;;;;6204918;28;20038;-60
2022/06/10 14:27:32;;;;;;;;;;;;;;;;;;6207379;28;20057;-60
2022/06/10 14:30:37;;;;;;;14.68;9.98;;;;;;;;;;6208870;28;19921;-60
2022/06/10 14:33:47;;;;;;;16.40;11.00;;;;;;;;;;6203500;28;20041;-59
2022/06/10 14:36:51;;;;;;;15.68;10.20;;;;;;;;;;6196030;28;20042;-61
2022/06/10 14:40:09;;;;;;;16.73;10.45;;;;;;;;;;6203234;28;20145;-60
2022/06/10 14:43:18;;;;;;;16.48;11.27;;;;;;;;;;6184708;28;20115;-60
2022/06/10 14:46:19;;;;;;;16.98;10.55;;;;;;;;;;6188924;28;20528;-60
2022/06/10 14:49:29;;;;;;;15.88;9.45;;;;;;;;;;6192483;28;20085;-61
2022/06/10 14:52:42;;;;;;;15.52;10.15;;;;;;;;;;6185466;28;20737;-60
2022/06/10 14:55:46;;;;;;;13.85;10.30;;;;;;;;;;6189744;28;20072;-60
2022/06/10 14:58:47;;;;;;;15.70;10.20;;;;;;;;;;6190041;28;20049;-60
2022/06/10 15:01:49;;;;;;;14.03;9.97;;;;;;;;;;6189523;28;20050;-60
2022/06/10 15:08:14;;;;;;;11.82;8.45;;;;;;;;;;6190633;28;20165;-59
2022/06/10 15:11:17;;;;;;;13.18;8.77;;;;;;;;;;6191034;28;20038;-60
2022/06/10 15:14:21;;;;;;;13.07;7.95;;;;;;;;;;6189614;28;20177;-60
2022/06/10 15:17:25;;;;;;;11.93;7.40;;;;;;;;;;6193579;28;20086;-59
2022/06/10 15:20:26;;;;;;;12.98;7.28;;;;;;;;;;6190939;28;20086;-61
2022/06/10 15:23:26;;;;;;;13.17;7.37;;;;;;;;;;6188313;28;20057;-60
2022/06/10 15:26:34;;;;;;;10.37;7.07;;;;;;;;;;6192733;28;20124;-60
2022/06/10 15:29:35;;;;;;;10.23;7.43;;;;;;;;;;6196522;28;20108;-60
2022/06/10 15:32:35;;;;;;;11.73;6.03;;;;;;;;;;6197229;28;20359;-59
2022/06/10 15:42:15;;;;;;;11.55;7.18;;;;;;;;;;6199636;28;20436;-60
2022/06/10 15:45:17;;;;;;;9.45;6.65;;;;;;;;;;6194911;28;20050;-60
2022/06/10 15:48:17;;;;;;;9.65;6.97;;;;;;;;;;6198858;28;20045;-60
2022/06/10 15:51:26;;;;;;;10.77;6.33;;;;;;;;;;6196444;28;20043;-60
2022/06/10 15:54:31;;;;;;;9.40;6.53;;;;;;;;;;6196025;28;20050;-60
2022/06/10 15:57:37;;;;;;;11.38;6.10;;;;;;;;;;6197964;28;20085;-59
2022/06/10 16:00:38;;;;;;;10.15;6.43;;;;;;;;;;6195721;28;20389;-60
2022/06/10 16:03:39;;;;;;;9.13;5.93;;;;;;;;;;6196437;28;20522;-60
2022/06/10 16:06:39;;;;;;;9.30;6.00;;;;;;;;;;6197870;28;20058;-60
2022/06/10 16:09:40;;;;;;;7.63;5.60;;;;;;;;;;6195741;28;20793;-57
2022/06/10 16:13:00;;;;;;;14.00;6.03;;;;;;;;;;6195454;28;20060;-58
2022/06/10 16:16:03;;;;;;;9.23;6.07;;;;;;;;;;6196325;28;20890;-59
2022/06/10 16:19:04;;;;;;;9.30;6.25;;;;;;;;;;6195224;28;20054;-59
2022/06/10 16:22:05;;;;;;;10.53;6.47;;;;;;;;;;6195192;28;20054;-58
2022/06/10 16:25:09;;;;;;;13.40;6.30;;;;;;;;;;6197049;28;20062;-58
2022/06/10 16:28:14;;;;;;;9.82;6.07;;;;;;;;;;6194208;28;20144;-57
2022/06/10 16:31:23;;;;;;;8.48;6.20;;;;;;;;;;6194373;28;20136;-57
2022/06/10 16:34:24;;;;;;;10.70;6.85;;;;;;;;;;6198417;28;20435;-56
2022/06/10 16:37:25;;;;;;;11.30;6.50;;;;;;;;;;6194526;28;20049;-65
2022/06/10 16:40:28;;;;;;;8.57;6.20;;;;;;;;;;6191927;28;20050;-58
2022/06/10 16:43:36;;;;;;;11.35;6.63;;;;;;;;;;6195289;28;20042;-59
2022/06/10 16:46:40;;;;;;;11.93;6.68;;;;;;;;;;6195287;28;20053;-59
2022/06/10 16:49:42;;;;;;;10.75;6.60;;;;;;;;;;6197808;28;20105;-59
2022/06/10 16:52:42;;;;;;;;;;;;;;;;;;6195308;28;20149;-59
2022/06/10 16:55:45;;;;;;;10.57;6.63;;;;;;;;;;6195575;28;19922;-59
2022/06/10 16:58:50;;;;;;;12.68;6.55;;;;;;;;;;6199969;28;20081;-58
2022/06/10 17:01:58;;;;;;;8.38;6.75;;;;;;;;;;6199257;28;20081;-60
2022/06/10 17:05:03;;;;;;;10.18;6.57;;;;;;;;;;6197318;28;20147;-59
2022/06/10 17:08:05;;;;;;;10.77;6.45;;;;;;;;;;6195149;28;20049;-59
2022/06/10 17:11:20;;;;;;;11.95;6.75;;;;;;;;;;6193446;28;20516;-59
2022/06/10 17:14:26;;;;;;;10.35;6.55;;;;;;;;;;6196049;28;20141;-58
2022/06/10 17:17:28;;;;;;;10.73;6.82;;;;;;;;;;6196848;28;20081;-58
2022/06/10 17:20:34;;;;;;;8.55;5.88;;;;;;;;;;6196977;28;20166;-59
2022/06/10 17:23:35;;;;;;;11.07;6.47;;;;;;;;;;6198202;28;20050;-58
2022/06/10 17:26:54;;;;;;;10.60;6.33;;;;;;;;;;6197416;28;20052;-59
2022/06/10 17:29:56;;;;;;;9.15;6.40;;;;;;;;;;6195622;28;20538;-59
2022/06/10 17:32:57;;;;;;;9.63;6.30;;;;;;;;;;6196861;28;20129;-59
2022/06/10 17:36:00;;;;;;;13.57;6.10;;;;;;;;;;6198959;28;20064;-59
2022/06/10 17:39:01;;;;;;;10.52;6.60;;;;;;;;;;6199279;28;20884;-59
2022/06/10 17:42:04;;;;;;;12.88;6.50;;;;;;;;;;6197020;28;20060;-60
2022/06/10 17:45:13;;;;;;;10.40;6.38;;;;;;;;;;6190132;28;20105;-59
2022/06/10 17:48:15;;;;;;;9.77;6.50;;;;;;;;;;6195029;28;20080;-57
2022/06/10 17:51:15;;;;;;;12.40;6.38;;;;;;;;;;6192953;28;20169;-59
2022/06/10 17:54:17;;;;;;;8.57;6.40;;;;;;;;;;6194165;28;20872;-59
2022/06/10 17:57:43;;;;;;;10.27;6.70;;;;;;;;;;6192132;28;20109;-59
2022/06/10 18:00:48;;;;;;;10.57;6.53;;;;;;;;;;6192319;28;20124;-58
2022/06/10 18:03:50;;;;;;;12.18;7.13;;;;;;;;;;6193783;28;20133;-59
2022/06/10 18:06:51;;;;;;;10.27;6.82;;;;;;;;;;6189817;28;21526;-59
2022/06/10 18:09:52;;;;;;;9.65;6.15;;;;;;;;;;6190372;28;20132;-60
2022/06/10 18:14:53;;;;;;;12.53;7.90;;;;;;;;;;6197356;28;20042;-58
2022/06/10 18:16:21;;;;;;;12.57;8.80;;;;;;;;;;6192677;28;20068;-59
2022/06/10 18:19:27;;;;;;;9.65;6.57;;;;;;;;;;6194360;28;20198;-59
2022/06/10 18:22:28;;;;;;;10.20;6.78;;;;;;;;;;6190779;28;20038;-59
2022/06/10 18:25:29;;;;;;;12.17;6.83;;;;;;;;;;6195776;28;20540;-59
2022/06/10 18:28:31;;;;;;;13.80;7.33;;;;;;;;;;6198462;28;20062;-58
2022/06/10 18:31:32;;;;;;;12.10;7.25;;;;;;;;;;6192463;28;20129;-59
2022/06/10 18:34:34;;;;;;;11.85;6.80;;;;;;;;;;6196562;28;20057;-59